createdAt,value
2019-02-19T00:02:44.819Z,2.40
2019-02-19T00:05:27.447Z,2.40
2019-02-19T00:08:11.365Z,2.40
2019-02-19T00:10:53.859Z,2.40
2019-02-19T00:13:36.739Z,2.30
2019-02-19T00:16:20.561Z,2.30
2019-02-19T00:19:03.285Z,2.30
2019-02-19T00:21:46.205Z,2.20
2019-02-19T00:24:28.648Z,2.20
2019-02-19T00:27:11.843Z,2.30
2019-02-19T00:29:54.566Z,2.20
2019-02-19T00:32:37.723Z,2.10
2019-02-19T00:35:20.589Z,2.00
2019-02-19T00:38:03.550Z,2.00
2019-02-19T00:40:46.309Z,1.90
2019-02-19T00:43:30.513Z,1.90
2019-02-19T00:46:13.660Z,1.80
2019-02-19T00:48:57.481Z,1.80
2019-02-19T00:51:40.396Z,1.80
2019-02-19T00:54:22.722Z,1.80
2019-02-19T00:57:05.706Z,1.80
2019-02-19T00:59:48.376Z,1.80
2019-02-19T01:02:31.430Z,1.70
2019-02-19T01:05:14.543Z,1.70
2019-02-19T01:07:57.312Z,1.60
2019-02-19T01:10:40.350Z,1.60
2019-02-19T01:13:23.347Z,1.60
2019-02-19T01:16:06.296Z,1.80
2019-02-19T01:18:50.273Z,1.60
2019-02-19T01:21:33.427Z,1.50
2019-02-19T01:24:16.238Z,1.60
2019-02-19T01:26:59.163Z,1.60
2019-02-19T01:29:42.347Z,1.60
2019-02-19T01:32:25.098Z,1.50
2019-02-19T01:35:09.235Z,1.40
2019-02-19T01:37:51.935Z,1.40
2019-02-19T01:40:34.783Z,1.20
2019-02-19T01:43:17.669Z,1.30
2019-02-19T01:46:01.529Z,1.30
2019-02-19T01:48:44.248Z,1.20
2019-02-19T01:51:30.489Z,0.80
2019-02-19T01:54:13.380Z,1.00
2019-02-19T01:56:56.011Z,1.00
2019-02-19T01:59:38.799Z,1.10
2019-02-19T02:02:22.064Z,0.80
2019-02-19T02:05:05.351Z,1.10
2019-02-19T02:07:48.326Z,1.10
2019-02-19T02:10:31.196Z,1.10
2019-02-19T02:13:18.133Z,1.00
2019-02-19T02:16:01.007Z,1.00
2019-02-19T02:18:43.599Z,1.00
2019-02-19T02:21:27.306Z,0.80
2019-02-19T02:27:07.583Z,0.90
2019-02-19T02:29:57.534Z,0.80
2019-02-19T02:32:40.504Z,0.80
2019-02-19T02:35:23.418Z,0.90
2019-02-19T02:38:10.093Z,0.90
2019-02-19T02:40:55.123Z,0.80
2019-02-19T02:43:38.308Z,0.80
2019-02-19T02:46:20.598Z,0.80
2019-02-19T02:49:03.425Z,0.70
2019-02-19T02:51:53.252Z,0.60
2019-02-19T02:57:36.727Z,0.60
2019-02-19T03:00:26.620Z,0.70
2019-02-19T03:03:09.649Z,0.60
2019-02-19T03:08:59.246Z,0.50
2019-02-19T03:11:49.194Z,0.50
2019-02-19T03:14:35.559Z,0.50
2019-02-19T03:17:22.716Z,0.40
2019-02-19T03:20:06.267Z,0.40
2019-02-19T03:22:53.443Z,0.40
2019-02-19T03:28:32.806Z,0.30
2019-02-19T03:31:15.804Z,0.30
2019-02-19T03:33:58.417Z,0.30
2019-02-19T03:36:48.206Z,0.20
2019-02-19T03:39:30.661Z,0.20
2019-02-19T03:42:13.647Z,0.20
2019-02-19T03:44:56.287Z,0.10
2019-02-19T03:47:46.152Z,0.10
2019-02-19T03:50:29.122Z,0.20
2019-02-19T03:53:12.226Z,0.10
2019-02-19T03:55:55.032Z,0.10
2019-02-19T03:58:44.899Z,0.10
2019-02-19T04:01:27.384Z,0.10
2019-02-19T04:04:09.774Z,0.10
2019-02-19T04:06:52.686Z,0.10
2019-02-19T04:12:37.348Z,0.10
2019-02-19T04:15:27.241Z,0.10
2019-02-19T04:18:09.599Z,0.10
2019-02-19T04:23:53.869Z,0.10
2019-02-19T04:26:43.713Z,0.00
2019-02-19T04:32:30.980Z,0.00
2019-02-19T04:35:13.859Z,0.00
2019-02-19T04:37:56.588Z,0.00
2019-02-19T04:40:39.467Z,0.20
2019-02-19T04:43:22.312Z,-0.10
2019-02-19T04:46:12.132Z,-0.10
2019-02-19T04:48:55.153Z,-0.10
2019-02-19T04:51:37.841Z,-0.10
2019-02-19T04:54:20.837Z,-0.10
2019-02-19T05:03:07.568Z,-0.30
2019-02-19T05:05:50.396Z,0.00
2019-02-19T05:08:33.143Z,0.00
2019-02-19T05:11:16.097Z,0.10
2019-02-19T05:13:59.349Z,0.10
2019-02-19T05:16:45.818Z,0.20
2019-02-19T05:19:28.288Z,0.20
2019-02-19T05:25:15.675Z,0.20
2019-02-19T05:28:05.481Z,0.20
2019-02-19T05:30:48.075Z,0.30
2019-02-19T05:33:37.976Z,0.20
2019-02-19T05:36:21.537Z,0.30
2019-02-19T05:39:05.219Z,0.40
2019-02-19T05:41:47.877Z,0.40
2019-02-19T05:44:37.674Z,0.40
2019-02-19T05:47:20.229Z,0.40
2019-02-19T05:50:06.267Z,0.40
2019-02-19T05:52:50.082Z,0.40
2019-02-19T05:55:40.093Z,0.50
2019-02-19T05:58:22.699Z,0.50
2019-02-19T06:00:53.365Z,0.50
2019-02-19T06:03:35.764Z,0.50
2019-02-19T06:09:27.250Z,0.50
2019-02-19T06:12:10.955Z,0.40
2019-02-19T06:14:56.225Z,0.40
2019-02-19T06:17:40.038Z,0.40
2019-02-19T06:20:23.309Z,0.50
2019-02-19T06:23:05.915Z,0.50
2019-02-19T06:25:50.735Z,0.50
2019-02-19T06:31:34.883Z,0.70
2019-02-19T06:34:24.721Z,0.80
2019-02-19T06:37:07.661Z,0.90
2019-02-19T06:39:57.416Z,1.00
2019-02-19T06:42:46.514Z,1.00
2019-02-19T06:45:36.276Z,1.20
2019-02-19T06:48:19.144Z,1.40
2019-02-19T06:57:05.169Z,1.70
2019-02-19T06:59:48.718Z,1.90
2019-02-19T07:02:34.386Z,2.00
2019-02-19T07:05:18.696Z,2.20
2019-02-19T07:08:01.813Z,2.00
2019-02-19T07:10:44.757Z,2.10
2019-02-19T07:13:27.524Z,2.50
2019-02-19T07:16:10.385Z,3.00
2019-02-19T07:18:53.039Z,3.00
2019-02-19T07:21:35.527Z,3.10
2019-02-19T07:24:22.176Z,3.30
2019-02-19T07:27:05.865Z,3.60
2019-02-19T07:29:48.828Z,4.10
2019-02-19T07:32:31.163Z,3.90
2019-02-19T07:35:14.102Z,3.90
2019-02-19T07:37:56.788Z,4.30
2019-02-19T07:40:39.720Z,4.30
2019-02-19T07:43:22.519Z,4.30
2019-02-19T07:46:05.490Z,4.10
2019-02-19T07:48:48.174Z,4.10
2019-02-19T07:51:31.526Z,4.10
2019-02-19T07:54:14.704Z,3.90
2019-02-19T07:56:58.782Z,4.10
2019-02-19T07:59:41.782Z,4.60
2019-02-19T08:02:24.574Z,4.90
2019-02-19T08:05:07.081Z,5.30
2019-02-19T08:07:49.537Z,5.60
2019-02-19T08:10:32.231Z,5.80
2019-02-19T08:13:20.959Z,6.40
2019-02-19T08:16:04.031Z,6.80
2019-02-19T08:18:47.019Z,7.00
2019-02-19T08:21:30.254Z,7.60
2019-02-19T08:24:12.636Z,8.50
2019-02-19T08:26:55.962Z,9.30
2019-02-19T08:29:39.245Z,9.50
2019-02-19T08:32:22.043Z,10.40
2019-02-19T08:35:06.421Z,11.00
2019-02-19T08:37:49.904Z,11.30
2019-02-19T08:40:32.607Z,11.60
2019-02-19T08:43:15.071Z,12.00
2019-02-19T08:45:58.872Z,12.20
2019-02-19T08:48:41.819Z,12.60
2019-02-19T08:51:24.737Z,12.90
2019-02-19T08:54:11.553Z,13.40
2019-02-19T08:56:54.472Z,14.00
2019-02-19T08:59:37.454Z,14.30
2019-02-19T09:02:21.477Z,14.30
2019-02-19T09:05:05.297Z,14.10
2019-02-19T09:07:48.255Z,14.40
2019-02-19T09:10:31.179Z,14.80
2019-02-19T09:13:14.916Z,15.30
2019-02-19T09:15:57.731Z,15.30
2019-02-19T09:18:39.987Z,15.20
2019-02-19T09:21:23.019Z,15.10
2019-02-19T09:24:12.835Z,15.20
2019-02-19T09:26:55.939Z,15.00
2019-02-19T09:29:39.421Z,15.00
2019-02-19T09:32:22.054Z,14.90
2019-02-19T09:38:13.545Z,15.10
2019-02-19T09:41:00.620Z,15.30
2019-02-19T09:43:43.123Z,15.20
2019-02-19T09:46:32.860Z,15.60
2019-02-19T09:49:16.054Z,15.60
2019-02-19T09:51:59.074Z,15.40
2019-02-19T09:54:42.066Z,15.80
2019-02-19T09:57:32.726Z,16.30
2019-02-19T10:00:21.937Z,16.40
2019-02-19T10:06:13.573Z,16.70
2019-02-19T10:08:56.767Z,16.90
2019-02-19T10:11:39.557Z,17.00
2019-02-19T10:14:22.642Z,17.30
2019-02-19T10:17:05.628Z,17.50
2019-02-19T10:19:55.809Z,17.40
2019-02-19T10:22:38.215Z,17.60
2019-02-19T10:25:22.204Z,17.50
2019-02-19T10:28:05.178Z,17.60
2019-02-19T10:30:48.967Z,17.70
2019-02-19T10:33:31.638Z,17.90
2019-02-19T10:36:14.643Z,17.90
2019-02-19T10:38:57.454Z,18.20
2019-02-19T10:41:47.263Z,18.30
2019-02-19T10:44:30.446Z,17.80
2019-02-19T10:47:13.458Z,17.80
2019-02-19T10:49:56.260Z,18.00
2019-02-19T10:55:48.879Z,18.30
2019-02-19T10:58:31.628Z,18.30
2019-02-19T11:01:14.693Z,18.40
2019-02-19T11:04:24.723Z,18.60
2019-02-19T11:07:07.944Z,18.50
2019-02-19T11:09:50.615Z,18.30
2019-02-19T11:12:33.559Z,18.50
2019-02-19T11:18:15.057Z,18.60
2019-02-19T11:20:57.733Z,19.00
2019-02-19T11:23:40.479Z,18.90
2019-02-19T11:29:25.516Z,18.80
2019-02-19T11:32:12.868Z,19.00
2019-02-19T11:34:56.041Z,19.00
2019-02-19T11:43:43.062Z,18.90
2019-02-19T11:46:26.342Z,18.80
2019-02-19T11:49:09.155Z,18.30
2019-02-19T11:51:51.754Z,18.30
2019-02-19T11:54:34.317Z,18.10
2019-02-19T11:57:18.444Z,18.40
2019-02-19T12:00:03.073Z,18.30
2019-02-19T12:02:45.720Z,18.30
2019-02-19T12:05:28.901Z,18.30
2019-02-19T12:08:12.666Z,18.30
2019-02-19T12:10:54.913Z,18.30
2019-02-19T12:13:37.910Z,18.70
2019-02-19T12:16:20.794Z,18.50
2019-02-19T12:19:04.050Z,18.30
2019-02-19T12:21:46.910Z,18.20
2019-02-19T12:24:33.740Z,18.00
2019-02-19T12:27:16.644Z,17.80
2019-02-19T12:30:04.016Z,17.70
2019-02-19T12:32:47.656Z,17.50
2019-02-19T12:35:30.285Z,17.50
2019-02-19T12:38:13.842Z,17.70
2019-02-19T12:41:00.600Z,17.70
2019-02-19T12:43:44.666Z,17.90
2019-02-19T12:46:31.918Z,17.70
2019-02-19T12:52:13.052Z,18.00
2019-02-19T12:58:10.278Z,17.80
2019-02-19T13:00:53.231Z,17.90
2019-02-19T13:03:36.205Z,17.70
2019-02-19T13:09:28.023Z,17.50
2019-02-19T13:12:10.744Z,17.50
2019-02-19T13:14:53.705Z,17.70
2019-02-19T13:20:48.453Z,17.90
2019-02-19T13:23:31.085Z,17.80
2019-02-19T13:26:13.802Z,17.70
2019-02-19T13:29:03.677Z,17.80
2019-02-19T13:31:51.898Z,17.50
2019-02-19T13:34:39.597Z,17.50
2019-02-19T13:37:22.348Z,17.50
2019-02-19T13:40:32.942Z,17.50
2019-02-19T13:43:16.027Z,17.30
2019-02-19T13:45:58.715Z,17.20
2019-02-19T13:48:41.541Z,17.40
2019-02-19T13:51:31.355Z,17.30
2019-02-19T13:54:15.435Z,17.50
2019-02-19T13:56:58.604Z,17.50
2019-02-19T13:59:41.337Z,17.20
2019-02-19T14:02:31.152Z,17.30
2019-02-19T14:05:14.092Z,17.30
2019-02-19T14:07:56.748Z,17.40
2019-02-19T14:10:39.521Z,17.20
2019-02-19T14:13:29.327Z,17.00
2019-02-19T14:16:21.427Z,16.70
2019-02-19T14:19:06.133Z,16.70
2019-02-19T14:22:08.414Z,16.60
2019-02-19T14:25:17.422Z,16.80
2019-02-19T14:31:02.813Z,16.50
2019-02-19T14:37:12.805Z,16.20
2019-02-19T14:40:15.271Z,16.20
2019-02-19T14:43:05.973Z,16.20
2019-02-19T14:46:08.223Z,16.30
2019-02-19T14:48:53.024Z,16.00
2019-02-19T14:57:56.268Z,15.90
2019-02-19T15:01:01.929Z,15.70
2019-02-19T15:03:48.671Z,15.70
2019-02-19T15:06:57.108Z,15.70
2019-02-19T15:09:44.500Z,15.60
2019-02-19T15:12:38.393Z,15.40
2019-02-19T15:15:40.126Z,15.10
2019-02-19T15:21:25.637Z,14.90
2019-02-19T15:27:25.972Z,14.90
2019-02-19T15:33:25.950Z,14.70
2019-02-19T15:36:13.435Z,14.60
2019-02-19T15:38:58.024Z,14.50
2019-02-19T15:42:07.066Z,14.40
2019-02-19T15:45:09.225Z,14.40
2019-02-19T15:47:54.080Z,14.00
2019-02-19T15:51:02.123Z,14.00
2019-02-19T15:57:04.125Z,13.90
2019-02-19T16:00:13.136Z,13.80
2019-02-19T16:02:58.123Z,13.60
2019-02-19T16:05:42.436Z,13.40
2019-02-19T16:11:30.948Z,13.20
2019-02-19T16:14:34.797Z,13.20
2019-02-19T16:20:51.294Z,12.70
2019-02-19T16:23:53.891Z,12.70
2019-02-19T16:26:39.100Z,12.50
2019-02-19T16:33:10.943Z,12.30
2019-02-19T16:39:12.959Z,12.00
2019-02-19T16:45:22.358Z,11.60
2019-02-19T16:48:09.792Z,11.60
2019-02-19T16:50:53.739Z,11.50
2019-02-19T16:54:02.681Z,11.20
2019-02-19T17:00:06.280Z,11.10
2019-02-19T17:03:15.244Z,11.20
2019-02-19T17:09:21.597Z,10.80
2019-02-19T17:12:06.756Z,10.80
2019-02-19T17:15:10.465Z,10.80
2019-02-19T17:24:05.205Z,10.70
2019-02-19T17:27:14.173Z,10.70
2019-02-19T17:30:16.442Z,10.70
2019-02-19T17:33:02.399Z,10.20
2019-02-19T17:35:47.224Z,10.20
2019-02-19T17:38:31.687Z,10.10
2019-02-19T17:41:18.610Z,10.20
2019-02-19T17:44:31.530Z,10.10
2019-02-19T17:47:33.636Z,10.10
2019-02-19T17:50:40.813Z,9.90
2019-02-19T17:53:32.611Z,9.80
2019-02-19T17:56:16.864Z,9.70
2019-02-19T17:59:01.483Z,9.70
2019-02-19T18:04:53.154Z,9.70
2019-02-19T18:08:02.057Z,9.70
2019-02-19T18:11:03.941Z,9.60
2019-02-19T18:14:00.787Z,9.40
2019-02-19T18:16:34.172Z,9.30
2019-02-19T18:19:04.752Z,9.10
2019-02-19T18:21:35.934Z,8.90
2019-02-19T18:24:06.555Z,8.80
2019-02-19T18:26:36.978Z,8.80
2019-02-19T18:29:07.494Z,8.60
2019-02-19T18:31:38.047Z,8.60
2019-02-19T18:34:08.633Z,8.50
2019-02-19T18:36:39.021Z,8.50
2019-02-19T18:39:09.807Z,8.40
2019-02-19T18:41:40.449Z,8.20
2019-02-19T18:44:10.909Z,8.20
2019-02-19T18:46:43.258Z,8.30
2019-02-19T18:49:13.875Z,8.20
2019-02-19T18:51:44.369Z,8.20
2019-02-19T18:54:14.843Z,8.10
2019-02-19T18:56:45.452Z,8.10
2019-02-19T18:59:16.236Z,8.00
2019-02-19T19:01:46.661Z,7.80
2019-02-19T19:04:17.167Z,7.40
2019-02-19T19:06:47.710Z,7.70
2019-02-19T19:09:18.296Z,7.60
2019-02-19T19:11:48.889Z,7.40
2019-02-19T19:14:19.453Z,7.40
2019-02-19T19:16:49.837Z,7.30
2019-02-19T19:19:20.342Z,7.10
2019-02-19T19:21:50.948Z,7.20
2019-02-19T19:24:21.467Z,7.10
2019-02-19T19:26:52.085Z,7.00
2019-02-19T19:29:22.748Z,7.00
2019-02-19T19:31:53.258Z,6.80
2019-02-19T19:34:23.688Z,6.80
2019-02-19T19:36:54.157Z,6.70
2019-02-19T19:39:25.532Z,6.70
2019-02-19T19:41:56.040Z,6.60
2019-02-19T19:44:26.512Z,6.60
2019-02-19T19:46:57.806Z,6.70
2019-02-19T19:49:28.390Z,6.60
2019-02-19T19:51:58.955Z,6.50
2019-02-19T19:54:29.495Z,6.40
2019-02-19T19:57:00.062Z,6.40
2019-02-19T19:59:30.566Z,6.40
2019-02-19T20:02:01.056Z,6.40
2019-02-19T20:04:33.245Z,6.30
2019-02-19T20:07:03.919Z,6.30
2019-02-19T20:09:34.337Z,6.30
2019-02-19T20:12:04.975Z,6.20
2019-02-19T20:14:35.512Z,6.10
2019-02-19T20:17:06.123Z,6.10
2019-02-19T20:19:36.716Z,6.10
2019-02-19T20:22:07.626Z,6.20
2019-02-19T20:24:38.066Z,5.90
2019-02-19T20:27:08.724Z,6.10
2019-02-19T20:29:39.416Z,5.90
2019-02-19T20:32:10.033Z,5.80
2019-02-19T20:34:41.265Z,5.80
2019-02-19T20:37:12.254Z,5.70
2019-02-19T20:39:42.760Z,5.70
2019-02-19T20:42:13.343Z,5.60
2019-02-19T20:44:43.840Z,5.30
2019-02-19T20:47:15.159Z,5.50
2019-02-19T20:49:45.638Z,5.40
2019-02-19T20:52:16.671Z,5.40
2019-02-19T20:54:47.322Z,5.40
2019-02-19T20:57:17.805Z,5.20
2019-02-19T20:59:48.380Z,5.00
2019-02-19T21:02:19.020Z,4.70
2019-02-19T21:04:49.870Z,4.60
2019-02-19T21:07:20.867Z,4.70
2019-02-19T21:09:51.447Z,4.80
2019-02-19T21:12:21.995Z,5.00
2019-02-19T21:14:52.455Z,4.90
2019-02-19T21:17:22.863Z,4.90
2019-02-19T21:19:53.324Z,4.80
2019-02-19T21:22:23.825Z,4.70
2019-02-19T21:24:54.763Z,4.70
2019-02-19T21:27:25.286Z,4.60
2019-02-19T21:29:57.280Z,4.60
2019-02-19T21:32:27.766Z,4.60
2019-02-19T21:34:58.251Z,4.60
2019-02-19T21:37:28.815Z,4.60
2019-02-19T21:39:59.388Z,4.50
2019-02-19T21:42:29.875Z,4.40
2019-02-19T21:45:00.450Z,4.40
2019-02-19T21:47:31.859Z,4.30
2019-02-19T21:50:02.303Z,4.30
2019-02-19T21:52:32.905Z,4.50
2019-02-19T21:55:04.641Z,4.10
2019-02-19T21:57:35.297Z,4.30
2019-02-19T22:00:19.580Z,4.30
2019-02-19T22:02:50.202Z,4.30
2019-02-19T22:05:20.703Z,4.30
2019-02-19T22:07:51.219Z,4.30
2019-02-19T22:10:21.748Z,4.30
2019-02-19T22:12:52.397Z,4.20
2019-02-19T22:15:22.838Z,4.30
2019-02-19T22:17:53.349Z,4.30
2019-02-19T22:20:42.114Z,4.40
2019-02-19T22:23:12.769Z,4.20
2019-02-19T22:25:43.354Z,4.20
2019-02-19T22:28:13.932Z,4.00
2019-02-19T22:30:44.409Z,4.30
2019-02-19T22:33:14.848Z,4.20
2019-02-19T22:35:45.220Z,4.40
2019-02-19T22:38:16.344Z,4.30
2019-02-19T22:40:54.827Z,4.40
2019-02-19T22:43:18.988Z,4.50
2019-02-19T22:45:49.450Z,4.40
2019-02-19T22:48:23.909Z,4.40
2019-02-19T22:50:54.454Z,4.50
2019-02-19T22:53:42.345Z,4.40
2019-02-19T22:56:17.397Z,4.50
2019-02-19T22:58:47.886Z,4.50
2019-02-19T23:01:32.052Z,4.40
2019-02-19T23:04:03.550Z,4.40
2019-02-19T23:06:34.052Z,4.40
2019-02-19T23:09:05.458Z,4.30
2019-02-19T23:11:36.080Z,4.40
2019-02-19T23:14:06.683Z,4.30
2019-02-19T23:16:37.083Z,4.30
2019-02-19T23:19:07.719Z,4.30
2019-02-19T23:21:38.337Z,4.40
2019-02-19T23:24:08.920Z,4.40
2019-02-19T23:26:39.349Z,4.40
2019-02-19T23:29:09.911Z,4.40
2019-02-19T23:31:40.469Z,4.40
2019-02-19T23:34:11.101Z,4.10
2019-02-19T23:36:43.491Z,4.30
2019-02-19T23:39:13.961Z,4.20
2019-02-19T23:41:44.491Z,4.20
2019-02-19T23:44:14.941Z,4.20
2019-02-19T23:46:45.486Z,4.00
2019-02-19T23:49:16.684Z,4.10
2019-02-19T23:51:47.867Z,4.10
2019-02-19T23:54:18.445Z,3.90
2019-02-19T23:56:48.995Z,3.90
2019-02-19T23:59:19.511Z,3.90
